sensor_id;sensor_type;location;lat;lon;timestamp;pressure;altitude;pressure_sealevel;temperature;humidity
5350;BME280;2697;42.144;24.794;2023-09-12T00:00:44;156684.91;;;15.94;80.33
5350;BME280;2697;42.144;24.794;2023-09-12T00:03:09;156647.88;;;15.80;81.24
5350;BME280;2697;42.144;24.794;2023-09-12T00:05:35;156653.16;;;15.82;81.97
5350;BME280;2697;42.144;24.794;2023-09-12T00:08:00;156653.16;;;15.82;81.98
5350;BME280;2697;42.144;24.794;2023-09-12T00:10:26;156674.31;;;15.90;82.13
5350;BME280;2697;42.144;24.794;2023-09-12T00:12:53;156661.13;;;15.85;81.54
5350;BME280;2697;42.144;24.794;2023-09-12T00:15:20;156639.94;;;15.77;81.37
5350;BME280;2697;42.144;24.794;2023-09-12T00:17:45;156657.16;;;15.83;81.47
5350;BME280;2697;42.144;24.794;2023-09-12T00:20:10;156630.72;;;15.73;81.61
5350;BME280;2697;42.144;24.794;2023-09-12T00:22:36;156639.94;;;15.77;81.99
5350;BME280;2697;42.144;24.794;2023-09-12T00:25:02;156638.63;;;15.76;83.31
5350;BME280;2697;42.144;24.794;2023-09-12T00:27:27;156610.88;;;15.65;83.41
5350;BME280;2697;42.144;24.794;2023-09-12T00:29:52;156594.94;;;15.59;83.41
5350;BME280;2697;42.144;24.794;2023-09-12T00:32:18;156608.25;;;15.64;83.67
5350;BME280;2697;42.144;24.794;2023-09-12T00:34:43;156592.31;;;15.58;83.64
5350;BME280;2697;42.144;24.794;2023-09-12T00:37:09;156568.53;;;15.49;83.60
5350;BME280;2697;42.144;24.794;2023-09-12T00:39:35;156547.38;;;15.41;82.88
5350;BME280;2697;42.144;24.794;2023-09-12T00:42:00;156567.19;;;15.49;82.66
5350;BME280;2697;42.144;24.794;2023-09-12T00:44:25;156556.59;;;15.45;82.83
5350;BME280;2697;42.144;24.794;2023-09-12T00:46:53;156580.38;;;15.54;82.37
5350;BME280;2697;42.144;24.794;2023-09-12T00:49:20;156584.41;;;15.55;82.78
5350;BME280;2697;42.144;24.794;2023-09-12T00:51:48;156550.00;;;15.42;83.06
5350;BME280;2697;42.144;24.794;2023-09-12T00:54:15;156604.22;;;15.63;83.28
5350;BME280;2697;42.144;24.794;2023-09-12T00:56:40;156624.06;;;15.71;82.53
5350;BME280;2697;42.144;24.794;2023-09-12T00:59:06;156655.84;;;15.83;81.45
5350;BME280;2697;42.144;24.794;2023-09-12T01:01:32;156686.25;;;15.94;80.28
5350;BME280;2697;42.144;24.794;2023-09-12T01:03:58;156621.44;;;15.70;81.06
5350;BME280;2697;42.144;24.794;2023-09-12T01:06:24;156618.78;;;15.68;82.64
5350;BME280;2697;42.144;24.794;2023-09-12T01:08:52;156657.16;;;15.83;82.57
5350;BME280;2697;42.144;24.794;2023-09-12T01:11:18;156679.63;;;15.92;82.23
5350;BME280;2697;42.144;24.794;2023-09-12T01:13:45;156666.41;;;15.87;82.81
5350;BME280;2697;42.144;24.794;2023-09-12T01:16:10;156684.91;;;15.94;83.27
5350;BME280;2697;42.144;24.794;2023-09-12T01:18:36;156678.31;;;15.91;82.89
5350;BME280;2697;42.144;24.794;2023-09-12T01:21:09;156639.94;;;15.77;85.06
5350;BME280;2697;42.144;24.794;2023-09-12T01:26:41;156534.19;;;15.36;89.16
5350;BME280;2697;42.144;24.794;2023-09-12T01:29:11;156519.63;;;15.30;91.25
5350;BME280;2697;42.144;24.794;2023-09-12T01:31:39;156564.56;;;15.48;90.69
5350;BME280;2697;42.144;24.794;2023-09-12T01:34:11;156583.06;;;15.55;90.69
5350;BME280;2697;42.144;24.794;2023-09-12T01:36:37;156585.72;;;15.56;90.42
5350;BME280;2697;42.144;24.794;2023-09-12T01:39:03;156534.19;;;15.36;91.63
5350;BME280;2697;42.144;24.794;2023-09-12T01:41:31;156555.28;;;15.44;90.85
5350;BME280;2697;42.144;24.794;2023-09-12T01:43:57;156498.47;;;15.22;92.10
5350;BME280;2697;42.144;24.794;2023-09-12T01:46:25;156546.03;;;15.40;91.38
5350;BME280;2697;42.144;24.794;2023-09-12T01:48:53;156602.91;;;15.62;90.06
5350;BME280;2697;42.144;24.794;2023-09-12T01:51:20;156567.19;;;15.49;89.27
5350;BME280;2697;42.144;24.794;2023-09-12T01:53:47;156515.66;;;15.29;91.01
5350;BME280;2697;42.144;24.794;2023-09-12T01:56:13;156516.97;;;15.29;91.96
5350;BME280;2697;42.144;24.794;2023-09-12T01:58:39;156419.19;;;14.92;94.92
5350;BME280;2697;42.144;24.794;2023-09-12T02:01:04;156388.81;;;14.80;96.98
5350;BME280;2697;42.144;24.794;2023-09-12T02:03:30;156388.81;;;14.80;97.26
5350;BME280;2697;42.144;24.794;2023-09-12T02:05:55;156383.50;;;14.78;96.68
5350;BME280;2697;42.144;24.794;2023-09-12T02:08:22;156390.16;;;14.80;96.10
5350;BME280;2697;42.144;24.794;2023-09-12T02:10:47;156428.44;;;14.95;95.10
5350;BME280;2697;42.144;24.794;2023-09-12T02:13:12;156415.25;;;14.90;95.33
5350;BME280;2697;42.144;24.794;2023-09-12T02:15:38;156452.22;;;15.04;95.54
5350;BME280;2697;42.144;24.794;2023-09-12T02:18:03;156441.66;;;15.00;95.13
5350;BME280;2697;42.144;24.794;2023-09-12T02:20:29;156456.16;;;15.06;95.28
5350;BME280;2697;42.144;24.794;2023-09-12T02:22:55;156441.66;;;15.00;96.11
5350;BME280;2697;42.144;24.794;2023-09-12T02:25:20;156439.03;;;14.99;96.41
5350;BME280;2697;42.144;24.794;2023-09-12T02:27:45;156435.03;;;14.98;96.72
5350;BME280;2697;42.144;24.794;2023-09-12T02:30:11;156464.13;;;15.09;96.54
5350;BME280;2697;42.144;24.794;2023-09-12T02:32:36;156452.22;;;15.04;96.92
5350;BME280;2697;42.144;24.794;2023-09-12T02:35:02;156469.41;;;15.11;97.02
5350;BME280;2697;42.144;24.794;2023-09-12T02:37:28;156465.44;;;15.09;97.47
5350;BME280;2697;42.144;24.794;2023-09-12T02:39:53;156487.91;;;15.18;97.15
5350;BME280;2697;42.144;24.794;2023-09-12T02:42:18;156472.03;;;15.12;97.26
5350;BME280;2697;42.144;24.794;2023-09-12T02:44:44;156433.69;;;14.97;99.80
5350;BME280;2697;42.144;24.794;2023-09-12T02:47:09;156425.78;;;14.94;99.36
5350;BME280;2697;42.144;24.794;2023-09-12T02:49:34;156427.09;;;14.95;99.63
5350;BME280;2697;42.144;24.794;2023-09-12T02:52:00;156420.50;;;14.92;100.00
5350;BME280;2697;42.144;24.794;2023-09-12T02:54:25;156396.75;;;14.83;100.00
5350;BME280;2697;42.144;24.794;2023-09-12T02:56:51;156355.78;;;14.67;100.00
5350;BME280;2697;42.144;24.794;2023-09-12T02:59:16;156332.00;;;14.58;100.00
5350;BME280;2697;42.144;24.794;2023-09-12T03:01:41;156338.59;;;14.61;100.00
5350;BME280;2697;42.144;24.794;2023-09-12T03:04:07;156322.75;;;14.54;100.00
5350;BME280;2697;42.144;24.794;2023-09-12T03:06:32;156314.81;;;14.51;100.00
5350;BME280;2697;42.144;24.794;2023-09-12T03:08:58;156288.34;;;14.41;100.00
5350;BME280;2697;42.144;24.794;2023-09-12T03:11:26;156317.50;;;14.52;100.00
5350;BME280;2697;42.144;24.794;2023-09-12T03:13:52;156304.25;;;14.47;100.00
5350;BME280;2697;42.144;24.794;2023-09-12T03:16:18;156301.63;;;14.46;100.00
5350;BME280;2697;42.144;24.794;2023-09-12T03:18:43;156283.06;;;14.39;100.00
5350;BME280;2697;42.144;24.794;2023-09-12T03:21:08;156264.56;;;14.32;100.00
5350;BME280;2697;42.144;24.794;2023-09-12T03:23:34;156299.00;;;14.45;100.00
5350;BME280;2697;42.144;24.794;2023-09-12T03:26:01;156317.50;;;14.52;100.00
5350;BME280;2697;42.144;24.794;2023-09-12T03:28:27;156332.00;;;14.58;100.00
5350;BME280;2697;42.144;24.794;2023-09-12T03:31:03;156335.94;;;14.60;100.00
5350;BME280;2697;42.144;24.794;2023-09-12T03:33:29;156260.63;;;14.31;100.00
5350;BME280;2697;42.144;24.794;2023-09-12T03:35:54;156288.34;;;14.41;100.00
5350;BME280;2697;42.144;24.794;2023-09-12T03:38:20;156264.56;;;14.32;100.00
5350;BME280;2697;42.144;24.794;2023-09-12T03:40:45;156228.94;;;14.18;100.00
5350;BME280;2697;42.144;24.794;2023-09-12T03:43:10;156210.44;;;14.11;100.00
5350;BME280;2697;42.144;24.794;2023-09-12T03:45:36;156199.91;;;14.07;100.00
5350;BME280;2697;42.144;24.794;2023-09-12T03:48:01;156172.19;;;13.96;100.00
5350;BME280;2697;42.144;24.794;2023-09-12T03:50:26;156158.97;;;13.91;100.00
5350;BME280;2697;42.144;24.794;2023-09-12T03:52:52;156174.81;;;13.97;100.00
5350;BME280;2697;42.144;24.794;2023-09-12T03:55:17;156182.72;;;14.01;100.00
5350;BME280;2697;42.144;24.794;2023-09-12T03:57:43;156174.81;;;13.97;100.00
5350;BME280;2697;42.144;24.794;2023-09-12T04:00:08;156169.50;;;13.95;100.00
5350;BME280;2697;42.144;24.794;2023-09-12T04:02:34;156148.41;;;13.87;100.00
5350;BME280;2697;42.144;24.794;2023-09-12T04:04:59;156077.13;;;13.60;100.00
5350;BME280;2697;42.144;24.794;2023-09-12T04:07:24;155992.66;;;13.27;100.00
5350;BME280;2697;42.144;24.794;2023-09-12T04:09:50;155974.16;;;13.20;100.00
5350;BME280;2697;42.144;24.794;2023-09-12T04:12:15;155995.28;;;13.28;100.00
5350;BME280;2697;42.144;24.794;2023-09-12T04:14:40;155962.25;;;13.16;100.00
5350;BME280;2697;42.144;24.794;2023-09-12T04:17:06;155979.47;;;13.22;100.00
5350;BME280;2697;42.144;24.794;2023-09-12T04:19:31;156000.56;;;13.30;100.00
5350;BME280;2697;42.144;24.794;2023-09-12T04:21:57;156044.09;;;13.47;100.00
5350;BME280;2697;42.144;24.794;2023-09-12T04:24:22;156077.13;;;13.60;100.00
5350;BME280;2697;42.144;24.794;2023-09-12T04:26:47;156129.94;;;13.80;100.00
5350;BME280;2697;42.144;24.794;2023-09-12T04:29:13;156287.03;;;14.41;100.00
5350;BME280;2697;42.144;24.794;2023-09-12T04:31:38;156362.34;;;14.70;100.00
5350;BME280;2697;42.144;24.794;2023-09-12T04:34:04;156412.59;;;14.89;100.00
5350;BME280;2697;42.144;24.794;2023-09-12T04:36:30;156428.44;;;14.95;100.00
5350;BME280;2697;42.144;24.794;2023-09-12T04:38:55;156404.66;;;14.86;100.00
5350;BME280;2697;42.144;24.794;2023-09-12T04:41:21;156547.38;;;15.41;100.00
5350;BME280;2697;42.144;24.794;2023-09-12T04:43:46;156683.59;;;15.93;100.00
5350;BME280;2697;42.144;24.794;2023-09-12T04:46:12;156975.97;;;17.06;100.00
5350;BME280;2697;42.144;24.794;2023-09-12T04:48:38;157269.91;;;18.19;94.36
5350;BME280;2697;42.144;24.794;2023-09-12T04:51:03;157609.16;;;19.49;85.03
5350;BME280;2697;42.144;24.794;2023-09-12T04:53:29;157760.38;;;20.07;77.31
5350;BME280;2697;42.144;24.794;2023-09-12T04:56:01;157830.66;;;20.34;75.66
5350;BME280;2697;42.144;24.794;2023-09-12T04:58:26;157849.25;;;20.41;73.76
5350;BME280;2697;42.144;24.794;2023-09-12T05:00:54;157914.31;;;20.66;72.99
5350;BME280;2697;42.144;24.794;2023-09-12T05:03:19;158062.94;;;21.23;70.25
5350;BME280;2697;42.144;24.794;2023-09-12T05:05:48;158174.44;;;21.66;66.67
5350;BME280;2697;42.144;24.794;2023-09-12T05:08:15;158259.47;;;21.99;66.11
5350;BME280;2697;42.144;24.794;2023-09-12T05:10:40;158450.78;;;22.72;60.87
5350;BME280;2697;42.144;24.794;2023-09-12T05:13:05;158581.03;;;23.22;59.06
5350;BME280;2697;42.144;24.794;2023-09-12T05:15:31;158638.19;;;23.44;58.64
5350;BME280;2697;42.144;24.794;2023-09-12T05:17:56;158788.50;;;24.01;56.34
5350;BME280;2697;42.144;24.794;2023-09-12T05:20:22;158841.69;;;24.22;54.12
5350;BME280;2697;42.144;24.794;2023-09-12T05:22:47;158817.75;;;24.12;53.83
5350;BME280;2697;42.144;24.794;2023-09-12T05:25:12;158804.44;;;24.07;54.06
5350;BME280;2697;42.144;24.794;2023-09-12T05:27:38;158876.28;;;24.35;52.63
5350;BME280;2697;42.144;24.794;2023-09-12T05:30:03;158684.75;;;23.62;53.83
5350;BME280;2697;42.144;24.794;2023-09-12T05:32:29;158601.00;;;23.29;54.40
5350;BME280;2697;42.144;24.794;2023-09-12T05:34:54;158442.78;;;22.69;54.98
5350;BME280;2697;42.144;24.794;2023-09-12T05:37:20;158860.25;;;24.29;51.01
5350;BME280;2697;42.144;24.794;2023-09-12T05:39:46;158881.59;;;24.37;50.29
5350;BME280;2697;42.144;24.794;2023-09-12T05:42:11;159019.97;;;24.90;48.65
5350;BME280;2697;42.144;24.794;2023-09-12T05:44:37;159063.94;;;25.07;47.21
5350;BME280;2697;42.144;24.794;2023-09-12T05:47:03;159165.06;;;25.45;46.43
5350;BME280;2697;42.144;24.794;2023-09-12T05:49:28;159070.59;;;25.09;46.38
5350;BME280;2697;42.144;24.794;2023-09-12T05:51:54;159081.25;;;25.13;45.16
5350;BME280;2697;42.144;24.794;2023-09-12T05:54:19;159081.25;;;25.13;44.93
5350;BME280;2697;42.144;24.794;2023-09-12T05:56:44;158974.72;;;24.72;45.55
5350;BME280;2697;42.144;24.794;2023-09-12T05:59:10;158941.50;;;24.60;46.14
5350;BME280;2697;42.144;24.794;2023-09-12T06:01:35;158998.69;;;24.82;46.53
5350;BME280;2697;42.144;24.794;2023-09-12T06:04:01;158708.69;;;23.71;48.13
5350;BME280;2697;42.144;24.794;2023-09-12T06:06:27;159090.56;;;25.17;45.64
5350;BME280;2697;42.144;24.794;2023-09-12T06:08:53;159053.28;;;25.02;45.79
5350;BME280;2697;42.144;24.794;2023-09-12T06:11:18;159292.91;;;25.94;44.84
5350;BME280;2697;42.144;24.794;2023-09-12T06:13:44;159103.81;;;25.22;45.21
5350;BME280;2697;42.144;24.794;2023-09-12T06:16:09;159002.66;;;24.83;46.21
5350;BME280;2697;42.144;24.794;2023-09-12T06:18:34;159110.53;;;25.24;45.55
5350;BME280;2697;42.144;24.794;2023-09-12T06:21:00;159139.78;;;25.36;45.65
5350;BME280;2697;42.144;24.794;2023-09-12T06:23:29;159233.03;;;25.71;45.86
5350;BME280;2697;42.144;24.794;2023-09-12T06:25:55;159266.28;;;25.84;44.38
5350;BME280;2697;42.144;24.794;2023-09-12T06:28:27;158977.38;;;24.73;46.52
5350;BME280;2697;42.144;24.794;2023-09-12T06:30:53;158380.38;;;22.45;52.98
5350;BME280;2697;42.144;24.794;2023-09-12T06:33:19;158161.22;;;21.61;55.87
5350;BME280;2697;42.144;24.794;2023-09-12T06:35:48;157862.53;;;20.46;62.70
5350;BME280;2697;42.144;24.794;2023-09-12T06:38:14;157756.38;;;20.06;66.42
5350;BME280;2697;42.144;24.794;2023-09-12T06:40:39;157773.66;;;20.12;66.04
5350;BME280;2697;42.144;24.794;2023-09-12T06:43:04;157741.78;;;20.00;68.23
5350;BME280;2697;42.144;24.794;2023-09-12T06:45:30;157728.53;;;19.95;70.67
5350;BME280;2697;42.144;24.794;2023-09-12T06:47:58;157717.91;;;19.91;71.52
5350;BME280;2697;42.144;24.794;2023-09-12T06:50:23;157663.56;;;19.70;73.55
5350;BME280;2697;42.144;24.794;2023-09-12T06:52:48;157699.38;;;19.84;73.71
5350;BME280;2697;42.144;24.794;2023-09-12T06:55:14;157744.47;;;20.01;71.57
5350;BME280;2697;42.144;24.794;2023-09-12T06:57:39;157712.63;;;19.89;73.26
5350;BME280;2697;42.144;24.794;2023-09-12T07:00:06;157703.34;;;19.85;74.15
5350;BME280;2697;42.144;24.794;2023-09-12T07:02:35;157739.13;;;19.99;73.37
5350;BME280;2697;42.144;24.794;2023-09-12T07:05:00;157786.88;;;20.17;72.82
5350;BME280;2697;42.144;24.794;2023-09-12T07:07:25;157798.84;;;20.22;72.71
5350;BME280;2697;42.144;24.794;2023-09-12T07:09:51;157780.25;;;20.15;73.01
5350;BME280;2697;42.144;24.794;2023-09-12T07:12:16;157837.28;;;20.37;71.17
5350;BME280;2697;42.144;24.794;2023-09-12T07:14:42;157869.19;;;20.49;70.13
5350;BME280;2697;42.144;24.794;2023-09-12T07:17:07;157930.19;;;20.72;69.37
5350;BME280;2697;42.144;24.794;2023-09-12T07:19:33;157988.63;;;20.95;67.38
5350;BME280;2697;42.144;24.794;2023-09-12T07:21:58;157944.81;;;20.78;67.72
5350;BME280;2697;42.144;24.794;2023-09-12T07:24:27;157924.91;;;20.70;69.44
5350;BME280;2697;42.144;24.794;2023-09-12T07:26:53;158004.50;;;21.01;68.35
5350;BME280;2697;42.144;24.794;2023-09-12T07:29:18;158084.22;;;21.31;66.83
5350;BME280;2697;42.144;24.794;2023-09-12T07:31:44;158105.41;;;21.40;64.98
5350;BME280;2697;42.144;24.794;2023-09-12T07:34:10;158105.41;;;21.40;63.97
5350;BME280;2697;42.144;24.794;2023-09-12T07:36:37;158081.53;;;21.30;62.82
5350;BME280;2697;42.144;24.794;2023-09-12T07:39:03;158081.53;;;21.30;63.70
5350;BME280;2697;42.144;24.794;2023-09-12T07:41:29;158124.00;;;21.47;63.54
5350;BME280;2697;42.144;24.794;2023-09-12T07:43:55;158145.25;;;21.55;62.91
5350;BME280;2697;42.144;24.794;2023-09-12T07:46:20;158193.06;;;21.73;61.76
5350;BME280;2697;42.144;24.794;2023-09-12T07:48:46;158254.16;;;21.97;60.43
5350;BME280;2697;42.144;24.794;2023-09-12T07:51:15;158185.09;;;21.70;60.52
5350;BME280;2697;42.144;24.794;2023-09-12T07:53:42;158159.88;;;21.60;61.29
5350;BME280;2697;42.144;24.794;2023-09-12T07:56:09;158232.91;;;21.88;59.85
5350;BME280;2697;42.144;24.794;2023-09-12T07:58:35;158235.56;;;21.89;59.69
5350;BME280;2697;42.144;24.794;2023-09-12T08:01:05;158255.47;;;21.97;60.40
5350;BME280;2697;42.144;24.794;2023-09-12T08:03:32;158259.47;;;21.99;60.72
5350;BME280;2697;42.144;24.794;2023-09-12T08:05:57;158296.66;;;22.13;60.44
5350;BME280;2697;42.144;24.794;2023-09-12T08:08:23;158320.56;;;22.22;60.86
5350;BME280;2697;42.144;24.794;2023-09-12T08:10:49;158390.97;;;22.49;61.10
5350;BME280;2697;42.144;24.794;2023-09-12T08:13:14;158437.47;;;22.67;60.99
5350;BME280;2697;42.144;24.794;2023-09-12T08:15:39;158453.44;;;22.73;59.72
5350;BME280;2697;42.144;24.794;2023-09-12T08:18:05;158458.75;;;22.75;58.50
5350;BME280;2697;42.144;24.794;2023-09-12T08:20:30;158453.44;;;22.73;58.28
5350;BME280;2697;42.144;24.794;2023-09-12T08:22:56;158514.59;;;22.96;58.57
5350;BME280;2697;42.144;24.794;2023-09-12T08:25:21;158530.53;;;23.02;57.97
5350;BME280;2697;42.144;24.794;2023-09-12T08:27:46;158570.44;;;23.18;56.94
5350;BME280;2697;42.144;24.794;2023-09-12T08:30:12;158644.88;;;23.46;57.09
5350;BME280;2697;42.144;24.794;2023-09-12T08:32:39;158666.09;;;23.54;56.92
5350;BME280;2697;42.144;24.794;2023-09-12T08:35:08;158660.78;;;23.52;56.02
5350;BME280;2697;42.144;24.794;2023-09-12T08:37:34;158712.66;;;23.72;55.61
5350;BME280;2697;42.144;24.794;2023-09-12T08:39:59;158743.28;;;23.84;56.33
5350;BME280;2697;42.144;24.794;2023-09-12T08:42:26;158743.28;;;23.84;54.77
5350;BME280;2697;42.144;24.794;2023-09-12T08:44:55;158763.19;;;23.92;54.04
5350;BME280;2697;42.144;24.794;2023-09-12T08:47:22;158690.06;;;23.64;53.73
5350;BME280;2697;42.144;24.794;2023-09-12T08:49:49;158741.97;;;23.83;53.65
5350;BME280;2697;42.144;24.794;2023-09-12T08:52:14;158787.13;;;24.01;52.43
5350;BME280;2697;42.144;24.794;2023-09-12T08:54:39;158811.06;;;24.10;53.24
5350;BME280;2697;42.144;24.794;2023-09-12T08:57:06;158869.66;;;24.32;53.06
5350;BME280;2697;42.144;24.794;2023-09-12T08:59:33;158886.97;;;24.39;52.55
5350;BME280;2697;42.144;24.794;2023-09-12T09:01:59;158865.63;;;24.31;51.48
5350;BME280;2697;42.144;24.794;2023-09-12T09:04:28;158904.22;;;24.45;51.17
5350;BME280;2697;42.144;24.794;2023-09-12T09:06:56;158861.66;;;24.29;50.98
5350;BME280;2697;42.144;24.794;2023-09-12T09:09:22;158942.81;;;24.60;50.83
5350;BME280;2697;42.144;24.794;2023-09-12T09:11:49;158982.75;;;24.76;50.58
5350;BME280;2697;42.144;24.794;2023-09-12T09:14:15;159010.69;;;24.86;50.37
5350;BME280;2697;42.144;24.794;2023-09-12T09:16:41;159041.28;;;24.98;50.27
5350;BME280;2697;42.144;24.794;2023-09-12T09:19:06;159079.88;;;25.13;49.57
5350;BME280;2697;42.144;24.794;2023-09-12T09:21:35;159118.50;;;25.27;48.71
5350;BME280;2697;42.144;24.794;2023-09-12T09:24:07;159147.75;;;25.39;48.26
5350;BME280;2697;42.144;24.794;2023-09-12T09:29:14;159213.00;;;25.64;47.51
5350;BME280;2697;42.144;24.794;2023-09-12T09:31:41;159257.00;;;25.80;47.57
5350;BME280;2697;42.144;24.794;2023-09-12T09:34:11;159284.94;;;25.91;46.06
5350;BME280;2697;42.144;24.794;2023-09-12T09:36:41;159312.88;;;26.02;46.43
5350;BME280;2697;42.144;24.794;2023-09-12T09:39:07;159267.63;;;25.84;45.96
5350;BME280;2697;42.144;24.794;2023-09-12T09:41:33;159320.88;;;26.05;45.71
5350;BME280;2697;42.144;24.794;2023-09-12T09:43:59;159294.25;;;25.95;45.82
5350;BME280;2697;42.144;24.794;2023-09-12T09:46:25;159364.81;;;26.22;45.57
5350;BME280;2697;42.144;24.794;2023-09-12T09:48:51;159364.81;;;26.22;45.24
5350;BME280;2697;42.144;24.794;2023-09-12T09:51:17;159390.13;;;26.31;45.27
5350;BME280;2697;42.144;24.794;2023-09-12T09:53:42;159406.16;;;26.37;44.24
5350;BME280;2697;42.144;24.794;2023-09-12T09:56:13;159432.78;;;26.48;43.51
5350;BME280;2697;42.144;24.794;2023-09-12T09:59:08;159456.78;;;26.57;44.98
5350;BME280;2697;42.144;24.794;2023-09-12T10:01:39;159488.72;;;26.69;43.42
5350;BME280;2697;42.144;24.794;2023-09-12T10:04:05;159507.38;;;26.76;43.35
5350;BME280;2697;42.144;24.794;2023-09-12T10:06:32;159464.75;;;26.60;43.34
5350;BME280;2697;42.144;24.794;2023-09-12T10:09:06;159567.38;;;26.99;41.88
5350;BME280;2697;42.144;24.794;2023-09-12T10:11:33;159534.03;;;26.86;42.78
5350;BME280;2697;42.144;24.794;2023-09-12T10:14:00;159499.41;;;26.73;41.59
5350;BME280;2697;42.144;24.794;2023-09-12T10:16:33;159592.72;;;27.09;42.12
5350;BME280;2697;42.144;24.794;2023-09-12T10:19:10;159611.34;;;27.16;42.59
5350;BME280;2697;42.144;24.794;2023-09-12T10:21:46;159651.34;;;27.31;42.20
5350;BME280;2697;42.144;24.794;2023-09-12T10:24:15;159695.31;;;27.48;41.68
5350;BME280;2697;42.144;24.794;2023-09-12T10:26:42;159724.63;;;27.59;41.49
5350;BME280;2697;42.144;24.794;2023-09-12T10:29:13;159598.03;;;27.11;41.17
5350;BME280;2697;42.144;24.794;2023-09-12T10:31:39;159652.66;;;27.32;40.57
5350;BME280;2697;42.144;24.794;2023-09-12T10:34:05;159630.00;;;27.23;41.21
5350;BME280;2697;42.144;24.794;2023-09-12T10:36:39;159654.00;;;27.32;41.06
5350;BME280;2697;42.144;24.794;2023-09-12T10:39:06;159684.63;;;27.44;40.66
5350;BME280;2697;42.144;24.794;2023-09-12T10:41:38;159744.69;;;27.67;40.71
5350;BME280;2697;42.144;24.794;2023-09-12T10:44:09;159787.34;;;27.83;40.41
5350;BME280;2697;42.144;24.794;2023-09-12T10:46:39;159859.28;;;28.10;40.26
5350;BME280;2697;42.144;24.794;2023-09-12T10:49:14;159877.97;;;28.18;39.96
5350;BME280;2697;42.144;24.794;2023-09-12T10:51:40;159888.66;;;28.22;39.95
5350;BME280;2697;42.144;24.794;2023-09-12T10:54:07;159879.28;;;28.18;39.80
5350;BME280;2697;42.144;24.794;2023-09-12T10:56:34;159938.06;;;28.41;40.67
5350;BME280;2697;42.144;24.794;2023-09-12T11:01:39;159958.06;;;28.48;39.84
5350;BME280;2697;42.144;24.794;2023-09-12T11:06:48;159971.38;;;28.53;39.18
5350;BME280;2697;42.144;24.794;2023-09-12T11:11:51;159959.38;;;28.49;39.50
5350;BME280;2697;42.144;24.794;2023-09-12T11:14:19;160011.41;;;28.68;39.60
5350;BME280;2697;42.144;24.794;2023-09-12T11:19:43;160020.72;;;28.72;38.94
5350;BME280;2697;42.144;24.794;2023-09-12T11:24:46;160035.41;;;28.78;38.69
5350;BME280;2697;42.144;24.794;2023-09-12T11:27:12;159956.69;;;28.48;38.94
5350;BME280;2697;42.144;24.794;2023-09-12T11:29:39;159991.38;;;28.61;39.42
5350;BME280;2697;42.144;24.794;2023-09-12T11:32:05;159995.38;;;28.62;38.89
5350;BME280;2697;42.144;24.794;2023-09-12T11:34:42;160086.13;;;28.97;38.90
5350;BME280;2697;42.144;24.794;2023-09-12T11:37:08;160112.81;;;29.07;38.65
5350;BME280;2697;42.144;24.794;2023-09-12T11:39:38;160134.16;;;29.15;38.61
5350;BME280;2697;42.144;24.794;2023-09-12T11:42:04;160090.13;;;28.99;38.40
5350;BME280;2697;42.144;24.794;2023-09-12T11:44:34;160091.47;;;28.99;38.30
5350;BME280;2697;42.144;24.794;2023-09-12T11:47:00;160050.03;;;28.83;38.43
5350;BME280;2697;42.144;24.794;2023-09-12T11:49:38;160064.78;;;28.89;38.54
5350;BME280;2697;42.144;24.794;2023-09-12T11:52:11;160035.41;;;28.78;38.87
5350;BME280;2697;42.144;24.794;2023-09-12T11:54:39;159998.03;;;28.63;39.84
5350;BME280;2697;42.144;24.794;2023-09-12T11:57:07;160000.69;;;28.64;39.43
5350;BME280;2697;42.144;24.794;2023-09-12T11:59:33;160034.06;;;28.77;38.86
5350;BME280;2697;42.144;24.794;2023-09-12T12:02:06;160006.06;;;28.66;38.75
5350;BME280;2697;42.144;24.794;2023-09-12T12:04:32;159939.38;;;28.41;38.96
5350;BME280;2697;42.144;24.794;2023-09-12T12:06:57;160016.72;;;28.71;38.79
5350;BME280;2697;42.144;24.794;2023-09-12T12:09:23;160030.03;;;28.76;39.34
5350;BME280;2697;42.144;24.794;2023-09-12T12:11:48;160118.13;;;29.09;38.78
5350;BME280;2697;42.144;24.794;2023-09-12T12:14:15;160174.16;;;29.31;38.55
5350;BME280;2697;42.144;24.794;2023-09-12T12:16:42;160196.84;;;29.39;37.85
5350;BME280;2697;42.144;24.794;2023-09-12T12:19:09;160190.19;;;29.37;37.78
5350;BME280;2697;42.144;24.794;2023-09-12T12:21:35;160268.94;;;29.67;36.94
5350;BME280;2697;42.144;24.794;2023-09-12T12:24:01;160195.50;;;29.39;37.21
5350;BME280;2697;42.144;24.794;2023-09-12T12:26:28;160200.84;;;29.41;37.90
5350;BME280;2697;42.144;24.794;2023-09-12T12:28:53;160216.88;;;29.47;37.92
5350;BME280;2697;42.144;24.794;2023-09-12T12:31:19;160232.94;;;29.53;37.89
5350;BME280;2697;42.144;24.794;2023-09-12T12:33:49;160290.31;;;29.75;37.94
5350;BME280;2697;42.144;24.794;2023-09-12T12:36:14;160272.94;;;29.68;37.02
5350;BME280;2697;42.144;24.794;2023-09-12T12:38:40;160231.63;;;29.52;37.66
5350;BME280;2697;42.144;24.794;2023-09-12T12:41:08;160275.66;;;29.69;37.31
5350;BME280;2697;42.144;24.794;2023-09-12T12:43:34;160255.63;;;29.62;36.81
5350;BME280;2697;42.144;24.794;2023-09-12T12:45:59;160317.00;;;29.85;37.09
5350;BME280;2697;42.144;24.794;2023-09-12T12:48:35;160306.34;;;29.81;36.72
5350;BME280;2697;42.144;24.794;2023-09-12T12:53:42;160234.28;;;29.54;36.81
5350;BME280;2697;42.144;24.794;2023-09-12T12:56:08;160275.66;;;29.69;37.45
5350;BME280;2697;42.144;24.794;2023-09-12T12:58:34;160319.66;;;29.86;36.90
5350;BME280;2697;42.144;24.794;2023-09-12T13:01:00;160358.38;;;30.01;36.93
5350;BME280;2697;42.144;24.794;2023-09-12T13:03:26;160363.72;;;30.03;36.72
5350;BME280;2697;42.144;24.794;2023-09-12T13:05:51;160358.38;;;30.01;36.38
5350;BME280;2697;42.144;24.794;2023-09-12T13:08:16;160369.03;;;30.05;36.23
5350;BME280;2697;42.144;24.794;2023-09-12T13:10:43;160342.34;;;29.95;36.97
5350;BME280;2697;42.144;24.794;2023-09-12T13:13:08;160283.66;;;29.72;37.42
5350;BME280;2697;42.144;24.794;2023-09-12T13:15:34;160307.66;;;29.82;36.98